Aviation Digital Data Service (ADDS)

Output produced by METARs form (2328 UTC 16 September 2014)
found at http://aviationweather.gov/adds/metars/
 
KORH 162321Z 1700/1724 27004KT P6SM BKN080 
     FM170100 27004KT P6SM FEW080 
     FM171500 00000KT P6SM FEW250 
     FM172100 25006KT P6SM FEW250